createdAt,value
2023-03-15T00:05:46.363Z,74.55
2023-03-15T00:11:49.442Z,74.96
2023-03-15T00:17:51.348Z,75.73
2023-03-15T00:23:53.310Z,75.74
2023-03-15T00:29:55.236Z,76.70
2023-03-15T00:35:57.133Z,77.95
2023-03-15T00:41:59.040Z,78.16
2023-03-15T00:48:00.946Z,78.73
2023-03-15T00:54:03.218Z,78.82
2023-03-15T01:00:05.921Z,80.07
2023-03-15T01:06:20.712Z,80.05
2023-03-15T01:12:22.610Z,79.91
2023-03-15T01:18:24.957Z,80.25
2023-03-15T01:24:26.844Z,80.04
2023-03-15T01:30:28.793Z,80.30
2023-03-15T01:36:30.760Z,80.61
2023-03-15T01:42:32.748Z,81.02
2023-03-15T01:48:46.360Z,83.27
2023-03-15T01:54:57.194Z,82.67
2023-03-15T02:00:59.131Z,83.38
2023-03-15T02:07:03.639Z,84.09
2023-03-15T02:13:07.234Z,84.10
2023-03-15T02:19:20.460Z,84.89
2023-03-15T02:25:49.918Z,86.09
2023-03-15T02:31:53.135Z,86.16
2023-03-15T02:37:55.360Z,85.81
2023-03-15T02:44:05.506Z,85.40
2023-03-15T02:50:08.272Z,84.40
2023-03-15T02:56:10.176Z,82.15
2023-03-15T03:02:13.357Z,79.42
2023-03-15T03:08:16.488Z,79.62
2023-03-15T03:14:18.529Z,81.55
2023-03-15T03:20:20.692Z,85.99
2023-03-15T03:26:28.022Z,90.00
2023-03-15T03:32:29.993Z,92.81
2023-03-15T03:38:31.978Z,96.12
2023-03-15T03:44:33.862Z,98.23
2023-03-15T03:50:35.885Z,100.00
2023-03-15T03:56:39.143Z,100.00
2023-03-15T04:02:44.353Z,100.00
2023-03-15T04:08:46.306Z,100.00
2023-03-15T04:14:48.200Z,100.00
2023-03-15T04:20:54.483Z,100.00
2023-03-15T04:26:57.927Z,100.00
2023-03-15T04:33:00.074Z,100.00
2023-03-15T04:39:07.206Z,100.00
2023-03-15T04:45:09.676Z,100.00
2023-03-15T04:51:11.593Z,100.00
2023-03-15T04:57:13.515Z,100.00
2023-03-15T05:03:15.446Z,100.00
2023-03-15T05:09:17.975Z,100.00
2023-03-15T05:15:20.307Z,100.00
2023-03-15T05:21:22.194Z,100.00
2023-03-15T05:27:24.107Z,100.00
2023-03-15T05:33:26.257Z,100.00
2023-03-15T05:39:28.203Z,100.00
2023-03-15T05:45:30.318Z,100.00
2023-03-15T05:51:32.243Z,100.00
2023-03-15T05:57:34.141Z,100.00
2023-03-15T06:03:36.264Z,100.00
2023-03-15T06:09:38.215Z,100.00
2023-03-15T06:15:40.277Z,100.00
2023-03-15T06:21:42.190Z,100.00
2023-03-15T06:27:44.080Z,100.00
2023-03-15T06:33:45.992Z,100.00
2023-03-15T06:39:48.249Z,100.00
2023-03-15T06:45:50.178Z,100.00
2023-03-15T06:51:52.104Z,98.64
2023-03-15T06:57:54.067Z,97.60
2023-03-15T07:03:55.958Z,96.21
2023-03-15T07:09:57.868Z,95.84
2023-03-15T07:15:59.910Z,94.20
2023-03-15T07:22:01.871Z,93.08
2023-03-15T07:28:03.887Z,89.04
2023-03-15T07:34:05.769Z,90.23
2023-03-15T07:40:10.007Z,89.78
2023-03-15T07:46:12.012Z,88.10
2023-03-15T07:52:13.950Z,86.54
2023-03-15T07:58:18.475Z,87.11
2023-03-15T08:04:21.882Z,86.29
2023-03-15T08:10:23.945Z,84.96
2023-03-15T08:16:25.924Z,84.27
2023-03-15T08:22:27.886Z,84.73
2023-03-15T08:28:29.740Z,84.13
2023-03-15T08:34:34.959Z,84.69
2023-03-15T08:40:38.858Z,81.50
2023-03-15T08:46:41.419Z,79.48
2023-03-15T08:52:43.813Z,78.46
2023-03-15T08:58:45.954Z,73.25
2023-03-15T09:04:48.089Z,69.61
2023-03-15T09:10:53.518Z,72.64
2023-03-15T09:16:55.460Z,77.60
2023-03-15T09:22:58.838Z,77.92
2023-03-15T09:29:00.748Z,81.50
2023-03-15T09:35:08.766Z,81.13
2023-03-15T09:41:31.857Z,78.82
2023-03-15T09:47:54.794Z,66.02
2023-03-15T09:54:32.258Z,66.85
2023-03-15T10:00:56.855Z,73.51
2023-03-15T10:07:02.889Z,74.34
2023-03-15T10:13:33.135Z,64.66
2023-03-15T10:19:34.875Z,60.46
2023-03-15T10:25:38.840Z,58.29
2023-03-15T10:31:45.111Z,57.76
2023-03-15T10:37:47.901Z,55.42
2023-03-15T10:44:06.237Z,50.81
2023-03-15T10:50:16.583Z,45.82
2023-03-15T10:56:28.639Z,51.48
2023-03-15T11:02:31.667Z,60.64
2023-03-15T11:08:42.947Z,56.71
2023-03-15T11:14:49.315Z,51.31
2023-03-15T11:20:54.587Z,45.54
2023-03-15T11:27:04.094Z,36.56
2023-03-15T11:33:09.437Z,46.13
2023-03-15T11:39:22.911Z,57.75
2023-03-15T11:45:34.821Z,64.40
2023-03-15T11:51:37.174Z,68.17
2023-03-15T11:57:46.212Z,70.96
2023-03-15T12:03:49.434Z,69.38
2023-03-15T12:09:57.023Z,66.48
2023-03-15T12:15:59.300Z,62.84
2023-03-15T12:22:01.313Z,65.19
2023-03-15T12:28:09.683Z,64.44
2023-03-15T12:34:22.863Z,60.83
2023-03-15T12:40:52.925Z,65.88
2023-03-15T12:46:57.537Z,59.95
2023-03-15T12:53:02.000Z,46.34
2023-03-15T12:59:27.543Z,53.88
2023-03-15T13:05:45.219Z,64.67
2023-03-15T13:12:08.356Z,68.25
2023-03-15T13:18:21.928Z,69.17
2023-03-15T13:24:48.908Z,54.98
2023-03-15T13:30:56.060Z,42.14
2023-03-15T13:37:02.144Z,38.55
2023-03-15T13:43:04.073Z,34.07
2023-03-15T13:49:06.592Z,34.98
2023-03-15T13:55:13.347Z,43.35
2023-03-15T14:01:17.035Z,51.06
2023-03-15T14:07:29.985Z,54.66
2023-03-15T14:13:59.918Z,66.03
2023-03-15T14:20:09.299Z,69.54
2023-03-15T14:26:36.673Z,69.97
2023-03-15T14:32:50.741Z,67.67
2023-03-15T14:38:56.717Z,73.06
2023-03-15T14:44:58.576Z,73.29
2023-03-15T14:51:00.530Z,73.51
2023-03-15T14:57:02.461Z,65.84
2023-03-15T15:03:15.165Z,53.55
2023-03-15T15:09:22.843Z,49.52
2023-03-15T15:15:24.769Z,44.63
2023-03-15T15:21:33.629Z,43.18
2023-03-15T15:27:35.996Z,38.98
2023-03-15T15:33:37.878Z,35.53
2023-03-15T15:39:41.496Z,39.03
2023-03-15T15:45:43.424Z,41.46
2023-03-15T15:51:49.654Z,43.86
2023-03-15T15:57:54.009Z,44.65
2023-03-15T16:03:55.905Z,44.94
2023-03-15T16:09:59.345Z,44.26
2023-03-15T16:16:01.382Z,42.10
2023-03-15T16:22:03.471Z,43.64
2023-03-15T16:28:07.831Z,41.63
2023-03-15T16:34:12.758Z,39.56
2023-03-15T16:40:27.055Z,40.46
2023-03-15T16:46:29.018Z,44.24
2023-03-15T16:52:32.734Z,48.97
2023-03-15T16:58:34.668Z,50.93
2023-03-15T17:04:36.572Z,52.85
2023-03-15T17:10:40.208Z,58.30
2023-03-15T17:16:42.676Z,62.46
2023-03-15T17:22:44.690Z,65.05
2023-03-15T17:28:48.158Z,67.56
2023-03-15T17:34:50.060Z,69.46
2023-03-15T17:40:52.670Z,71.32
2023-03-15T17:46:54.691Z,74.49
2023-03-15T17:53:07.762Z,76.23
2023-03-15T17:59:12.384Z,77.75
2023-03-15T18:05:19.647Z,79.78
2023-03-15T18:11:33.797Z,81.92
2023-03-15T18:17:35.741Z,81.72
2023-03-15T18:23:37.678Z,81.62
2023-03-15T18:29:39.663Z,83.67
2023-03-15T18:35:41.633Z,84.25
2023-03-15T18:41:43.533Z,84.44
2023-03-15T18:47:46.211Z,83.06
2023-03-15T18:53:48.737Z,82.97
2023-03-15T18:59:51.322Z,82.66
2023-03-15T19:05:53.663Z,84.36
2023-03-15T19:11:55.569Z,85.83
2023-03-15T19:17:57.511Z,86.65
2023-03-15T19:23:59.533Z,87.25
2023-03-15T19:30:01.975Z,86.42
2023-03-15T19:36:04.709Z,87.69
2023-03-15T19:42:06.654Z,87.88
2023-03-15T19:48:08.623Z,87.37
2023-03-15T19:54:10.609Z,87.86
2023-03-15T20:00:16.077Z,88.05
2023-03-15T20:06:18.229Z,88.35
2023-03-15T20:12:21.253Z,88.69
2023-03-15T20:18:23.429Z,89.28
2023-03-15T20:24:25.481Z,90.06
2023-03-15T20:30:27.490Z,90.68
2023-03-15T20:36:30.012Z,89.43
2023-03-15T20:42:32.826Z,89.54
2023-03-15T20:48:36.173Z,90.10
2023-03-15T20:54:38.128Z,90.90
2023-03-15T21:00:41.067Z,90.80
2023-03-15T21:06:43.062Z,92.22
2023-03-15T21:12:45.042Z,91.21
2023-03-15T21:18:51.690Z,91.20
2023-03-15T21:24:56.145Z,92.77
2023-03-15T21:30:58.634Z,92.02
2023-03-15T21:37:00.644Z,93.75
2023-03-15T21:43:02.637Z,93.15
2023-03-15T21:49:04.709Z,93.01
2023-03-15T21:55:08.359Z,93.18
2023-03-15T22:01:13.969Z,92.61
2023-03-15T22:07:16.047Z,93.68
2023-03-15T22:13:17.937Z,93.20
2023-03-15T22:19:19.860Z,93.57
2023-03-15T22:25:21.851Z,93.94
2023-03-15T22:31:23.780Z,93.25
2023-03-15T22:37:25.849Z,94.23
2023-03-15T22:43:27.847Z,93.94
2023-03-15T22:49:29.770Z,94.19
2023-03-15T22:55:31.642Z,94.18
2023-03-15T23:01:33.633Z,93.21
2023-03-15T23:07:35.661Z,93.57
2023-03-15T23:13:37.992Z,93.43
2023-03-15T23:19:40.422Z,94.33
2023-03-15T23:25:43.100Z,93.83
2023-03-15T23:31:45.038Z,94.49
2023-03-15T23:37:47.409Z,95.29
2023-03-15T23:43:49.300Z,94.98
2023-03-15T23:49:51.848Z,94.14
2023-03-15T23:55:54.628Z,94.26
